createdAt,value
2023-02-02T00:00:21.814Z,28.71
2023-02-02T00:01:21.813Z,28.71
2023-02-02T00:02:21.820Z,28.74
2023-02-02T00:03:21.789Z,28.76
2023-02-02T07:03:52.133Z,30.06
2023-02-02T07:17:52.989Z,30.26
2023-02-02T07:19:51.985Z,30.21
2023-02-02T07:44:51.796Z,30.53
2023-02-02T07:50:51.728Z,30.65
2023-02-02T08:15:51.877Z,30.67
2023-02-02T08:59:51.082Z,31.52
2023-02-02T09:00:51.453Z,31.71
2023-02-02T09:14:51.033Z,32.41
2023-02-02T09:15:51.381Z,32.52
2023-02-02T09:26:51.007Z,32.78
2023-02-02T09:32:50.794Z,32.73
2023-02-02T09:36:22.526Z,32.82
2023-02-02T09:36:50.717Z,33.00
2023-02-02T09:37:50.737Z,32.98
2023-02-02T09:38:53.895Z,32.73
2023-02-02T10:05:51.451Z,31.83
2023-02-02T10:22:50.879Z,31.69
2023-02-02T10:23:50.893Z,31.71
2023-02-02T10:42:50.103Z,32.14
2023-02-02T10:50:21.877Z,32.12
2023-02-02T10:56:50.979Z,32.07
2023-02-02T11:02:51.511Z,32.02
2023-02-02T11:14:50.978Z,32.61
2023-02-02T12:03:51.147Z,32.06
2023-02-02T13:58:48.610Z,33.06
2023-02-02T14:07:48.528Z,33.20
2023-02-02T16:17:47.327Z,30.91
2023-02-02T16:40:47.078Z,30.76
2023-02-02T16:42:47.060Z,30.76
2023-02-02T16:51:46.977Z,30.72
2023-02-02T16:56:46.935Z,30.66
2023-02-02T16:57:46.922Z,30.72
2023-02-02T16:58:46.946Z,30.68
2023-02-02T16:59:46.905Z,30.66
2023-02-02T17:00:46.897Z,30.66
2023-02-02T17:01:47.002Z,30.64
2023-02-02T17:02:46.931Z,30.64
2023-02-02T17:03:46.869Z,30.62
2023-02-02T17:04:46.853Z,30.59
2023-02-02T17:05:46.848Z,30.63
2023-02-02T17:06:52.713Z,30.63
2023-02-02T17:07:46.837Z,30.59
2023-02-02T17:08:46.816Z,30.60
2023-02-02T17:09:46.809Z,30.58
2023-02-02T17:10:46.825Z,30.61
2023-02-02T17:11:46.788Z,30.62
2023-02-02T17:12:46.779Z,30.55
2023-02-02T17:14:46.761Z,30.52
2023-02-02T17:15:46.757Z,30.55
2023-02-02T17:16:46.785Z,30.53
2023-02-02T17:17:46.729Z,30.59
2023-02-02T17:18:46.807Z,30.59
2023-02-02T17:19:46.714Z,30.57
2023-02-02T17:20:46.716Z,30.60
2023-02-02T17:21:46.697Z,30.56
2023-02-02T17:22:46.687Z,30.53
2023-02-02T17:23:46.673Z,30.50
2023-02-02T17:24:46.666Z,30.46
2023-02-02T17:25:46.660Z,30.49
2023-02-02T17:26:46.885Z,30.46
2023-02-02T17:27:46.638Z,30.42
2023-02-02T17:28:46.626Z,30.46
2023-02-02T17:29:46.628Z,30.47
2023-02-02T17:30:46.713Z,30.45
2023-02-02T17:31:46.712Z,30.49
2023-02-02T17:32:46.601Z,30.50
2023-02-02T17:33:46.586Z,30.47
2023-02-02T17:34:46.587Z,30.46
2023-02-02T17:35:54.963Z,30.40
2023-02-02T17:36:46.554Z,30.45
2023-02-02T17:37:46.555Z,30.46
2023-02-02T17:38:46.536Z,30.46
2023-02-02T17:39:46.547Z,30.42
2023-02-02T17:40:46.521Z,30.45
2023-02-02T17:41:46.511Z,30.39
2023-02-02T17:42:46.521Z,30.39
2023-02-02T17:43:46.493Z,30.40
2023-02-02T17:44:46.479Z,30.46
2023-02-02T17:45:46.548Z,30.45
2023-02-02T17:46:46.465Z,30.45
2023-02-02T17:47:46.451Z,30.46
2023-02-02T17:48:46.443Z,30.43
2023-02-02T17:49:46.433Z,30.37
2023-02-02T17:50:46.421Z,30.46
2023-02-02T17:51:46.450Z,30.49
2023-02-02T17:52:46.408Z,30.45
2023-02-02T17:53:46.427Z,30.45
2023-02-02T17:54:46.392Z,30.39
2023-02-02T17:55:46.382Z,30.40
2023-02-02T17:56:46.398Z,30.37
2023-02-02T17:57:47.302Z,30.39
2023-02-02T17:58:46.373Z,30.39
2023-02-02T17:59:46.349Z,30.36
2023-02-02T18:00:46.339Z,30.39
2023-02-02T18:01:46.380Z,30.39
2023-02-02T18:02:46.334Z,30.39
2023-02-02T18:03:46.300Z,30.36
2023-02-02T18:04:46.287Z,30.37
2023-02-02T18:05:46.283Z,30.39
2023-02-02T18:06:46.293Z,30.39
2023-02-02T18:07:46.261Z,30.40
2023-02-02T18:08:46.250Z,30.39
2023-02-02T18:09:46.242Z,30.40
2023-02-02T18:10:46.231Z,30.35
2023-02-02T18:11:46.237Z,30.33
2023-02-02T18:12:46.211Z,30.40
2023-02-02T18:13:46.220Z,30.37
2023-02-02T18:14:46.222Z,30.30
2023-02-02T18:15:46.296Z,30.31
2023-02-02T18:16:46.176Z,30.37
2023-02-02T18:17:46.165Z,30.40
2023-02-02T18:18:46.157Z,30.39
2023-02-02T18:19:46.156Z,30.40
2023-02-02T18:20:46.140Z,30.35
2023-02-02T18:21:46.125Z,30.40
2023-02-02T18:22:46.122Z,30.35
2023-02-02T18:23:46.109Z,30.36
2023-02-02T18:24:46.098Z,30.40
2023-02-02T18:25:46.096Z,30.35
2023-02-02T18:26:46.152Z,30.30
2023-02-02T18:27:46.071Z,30.35
2023-02-02T18:28:46.072Z,30.31
2023-02-02T18:29:46.052Z,30.36
2023-02-02T18:30:46.131Z,30.30
2023-02-02T18:31:46.142Z,30.29
2023-02-02T18:32:46.028Z,30.29
2023-02-02T18:33:46.017Z,30.29
2023-02-02T18:34:46.010Z,30.30
2023-02-02T18:35:45.999Z,30.30
2023-02-02T18:36:45.984Z,30.24
2023-02-02T18:37:45.978Z,30.27
2023-02-02T18:38:45.969Z,30.29
2023-02-02T18:39:45.960Z,30.27
2023-02-02T18:40:45.952Z,30.26
2023-02-02T18:41:45.943Z,30.24
2023-02-02T18:42:45.950Z,30.24
2023-02-02T18:43:45.929Z,30.26
2023-02-02T18:44:45.914Z,30.29
2023-02-02T18:45:45.906Z,30.20
2023-02-02T18:46:46.040Z,30.21
2023-02-02T18:47:45.887Z,30.27
2023-02-02T18:48:45.887Z,30.21
2023-02-02T18:49:45.865Z,30.20
2023-02-02T18:50:45.855Z,30.14
2023-02-02T18:51:45.847Z,30.17
2023-02-02T18:52:45.836Z,30.19
2023-02-02T18:53:45.829Z,30.14
2023-02-02T18:54:47.412Z,30.12
2023-02-02T19:13:45.790Z,30.07
2023-02-02T19:14:45.778Z,30.03
